createdAt,value
2023-02-19T00:00:00.759Z,1.97
2023-02-19T00:02:27.890Z,2.20
2023-02-19T00:04:55.161Z,1.90
2023-02-19T00:07:22.422Z,2.30
2023-02-19T00:09:49.521Z,2.53
2023-02-19T00:12:16.862Z,3.50
2023-02-19T00:14:44.172Z,4.43
2023-02-19T00:17:11.781Z,3.07
2023-02-19T00:19:39.044Z,3.27
2023-02-19T00:22:06.272Z,2.20
2023-02-19T00:24:34.050Z,2.10
2023-02-19T00:27:01.139Z,1.77
2023-02-19T00:29:28.365Z,1.60
2023-02-19T00:31:56.796Z,3.17
2023-02-19T00:34:24.536Z,2.07
2023-02-19T00:36:51.729Z,2.37
2023-02-19T00:39:21.404Z,2.13
2023-02-19T00:41:49.505Z,4.00
2023-02-19T00:44:16.938Z,3.30
2023-02-19T00:46:48.370Z,2.00
2023-02-19T00:49:18.713Z,1.93
2023-02-19T00:51:46.478Z,2.27
2023-02-19T00:54:15.965Z,2.90
2023-02-19T00:56:43.618Z,2.57
2023-02-19T00:59:11.102Z,1.83
2023-02-19T01:01:38.891Z,2.20
2023-02-19T01:04:06.934Z,2.07
2023-02-19T01:06:34.918Z,3.60
2023-02-19T01:09:04.514Z,3.47
2023-02-19T01:11:32.264Z,3.03
2023-02-19T01:14:00.959Z,1.43
2023-02-19T01:16:29.059Z,3.33
2023-02-19T01:18:57.823Z,2.80
2023-02-19T01:21:27.084Z,1.53
2023-02-19T01:23:54.914Z,1.20
2023-02-19T01:26:26.324Z,1.93
2023-02-19T01:28:53.688Z,1.40
2023-02-19T01:31:23.518Z,1.50
2023-02-19T01:33:56.734Z,1.13
2023-02-19T01:36:25.054Z,1.30
2023-02-19T01:38:52.201Z,1.87
2023-02-19T01:41:25.876Z,1.60
2023-02-19T01:44:12.837Z,1.50
2023-02-19T01:46:42.423Z,1.30
2023-02-19T01:49:25.001Z,1.03
2023-02-19T01:52:14.517Z,1.80
2023-02-19T01:54:44.501Z,0.80
2023-02-19T01:57:18.718Z,1.00
2023-02-19T01:59:49.737Z,1.33
2023-02-19T02:02:17.296Z,1.37
2023-02-19T02:04:45.779Z,0.83
2023-02-19T02:07:35.699Z,2.37
2023-02-19T02:10:21.572Z,1.77
2023-02-19T02:12:50.707Z,1.10
2023-02-19T02:15:19.082Z,1.40
2023-02-19T02:17:52.270Z,1.03
2023-02-19T02:20:50.332Z,1.27
2023-02-19T02:23:34.069Z,0.97
2023-02-19T02:26:21.886Z,1.10
2023-02-19T02:29:03.979Z,1.10
2023-02-19T02:31:49.962Z,1.17
2023-02-19T02:34:23.879Z,1.07
2023-02-19T02:36:55.559Z,1.30
2023-02-19T02:39:27.474Z,1.60
2023-02-19T02:42:17.426Z,1.10
2023-02-19T02:45:11.023Z,1.10
2023-02-19T02:47:51.780Z,1.20
2023-02-19T02:50:22.980Z,0.90
2023-02-19T02:53:22.404Z,1.13
2023-02-19T02:55:53.420Z,1.10
2023-02-19T02:58:24.347Z,1.20
2023-02-19T03:01:29.088Z,1.33
2023-02-19T03:04:05.370Z,1.17
2023-02-19T03:06:36.095Z,1.30
2023-02-19T03:09:12.049Z,0.83
2023-02-19T03:12:01.123Z,1.23
2023-02-19T03:15:02.327Z,0.60
2023-02-19T03:18:15.795Z,0.80
2023-02-19T03:20:47.293Z,1.07
2023-02-19T03:23:16.345Z,1.13
2023-02-19T03:26:02.766Z,1.07
2023-02-19T03:29:00.747Z,0.70
2023-02-19T03:31:30.714Z,1.10
2023-02-19T03:34:03.643Z,1.23
2023-02-19T03:36:39.472Z,1.70
2023-02-19T03:39:09.877Z,1.40
2023-02-19T03:42:09.380Z,0.97
2023-02-19T03:44:49.560Z,0.60
2023-02-19T03:47:33.072Z,0.63
2023-02-19T03:50:30.904Z,0.63
2023-02-19T03:53:15.866Z,0.80
2023-02-19T03:55:52.158Z,0.50
2023-02-19T03:58:35.767Z,0.70
2023-02-19T04:01:30.994Z,0.70
2023-02-19T04:04:15.843Z,0.43
2023-02-19T04:06:52.710Z,0.60
2023-02-19T04:09:24.328Z,0.40
2023-02-19T04:12:01.875Z,0.40
2023-02-19T04:14:40.740Z,0.50
2023-02-19T04:17:16.069Z,0.50
2023-02-19T04:19:43.665Z,0.50
2023-02-19T04:22:12.164Z,0.80
2023-02-19T04:24:48.413Z,0.50
2023-02-19T04:27:16.418Z,0.60
2023-02-19T04:29:43.753Z,0.70
2023-02-19T04:32:12.557Z,0.50
2023-02-19T04:34:42.618Z,0.60
2023-02-19T04:37:10.582Z,0.53
2023-02-19T04:39:37.758Z,0.50
2023-02-19T04:42:05.127Z,0.60
2023-02-19T04:44:34.541Z,0.40
2023-02-19T04:47:01.911Z,0.60
2023-02-19T04:49:30.600Z,0.37
2023-02-19T04:51:57.964Z,0.40
2023-02-19T04:54:25.373Z,0.43
2023-02-19T04:56:52.676Z,0.40
2023-02-19T04:59:19.723Z,0.50
2023-02-19T05:01:47.283Z,0.40
2023-02-19T05:04:14.586Z,0.40
2023-02-19T05:06:41.838Z,0.40
2023-02-19T05:09:09.182Z,0.40
2023-02-19T05:11:36.545Z,0.40
2023-02-19T05:14:04.071Z,0.40
2023-02-19T05:16:31.316Z,0.30
2023-02-19T05:18:59.057Z,0.40
2023-02-19T05:21:26.255Z,0.30
2023-02-19T05:23:55.691Z,0.30
2023-02-19T05:26:25.530Z,0.50
2023-02-19T05:28:56.461Z,0.40
2023-02-19T05:31:24.831Z,0.40
2023-02-19T05:33:53.593Z,0.40
2023-02-19T05:36:23.178Z,0.37
2023-02-19T05:38:58.018Z,0.40
2023-02-19T05:41:30.479Z,0.40
2023-02-19T05:43:58.578Z,0.40
2023-02-19T05:46:29.772Z,0.30
2023-02-19T05:48:58.461Z,0.30
2023-02-19T05:51:28.680Z,0.40
2023-02-19T05:53:57.047Z,0.40
2023-02-19T05:56:35.473Z,0.30
2023-02-19T05:59:08.145Z,0.40
2023-02-19T06:01:36.225Z,0.30
2023-02-19T06:04:03.839Z,0.30
2023-02-19T06:06:31.038Z,0.40
2023-02-19T06:08:58.595Z,0.30
2023-02-19T06:11:25.970Z,0.30
2023-02-19T06:13:53.219Z,0.30
2023-02-19T06:16:22.068Z,0.40
2023-02-19T06:18:50.007Z,0.40
2023-02-19T06:21:18.075Z,0.40
2023-02-19T06:23:45.857Z,0.40
2023-02-19T06:26:14.432Z,0.40
2023-02-19T06:28:42.575Z,0.30
2023-02-19T06:31:10.935Z,0.37
2023-02-19T06:33:43.161Z,0.30
2023-02-19T06:36:15.238Z,0.30
2023-02-19T06:38:45.837Z,0.30
2023-02-19T06:41:15.940Z,0.33
2023-02-19T06:43:43.355Z,0.30
2023-02-19T06:46:13.248Z,0.30
2023-02-19T06:48:42.740Z,0.30
2023-02-19T06:51:13.208Z,0.30
2023-02-19T06:53:40.815Z,0.97
2023-02-19T06:56:28.390Z,0.30
2023-02-19T06:58:58.519Z,0.30
2023-02-19T07:01:27.025Z,0.33
2023-02-19T07:03:56.884Z,0.30
2023-02-19T07:06:25.931Z,0.40
2023-02-19T07:08:54.712Z,0.30
2023-02-19T07:11:24.026Z,0.30
2023-02-19T07:14:02.026Z,0.40
2023-02-19T07:16:29.496Z,0.40
2023-02-19T07:18:58.206Z,0.40
2023-02-19T07:21:26.427Z,0.30
2023-02-19T07:23:54.059Z,0.33
2023-02-19T07:26:22.261Z,0.40
2023-02-19T07:28:51.202Z,0.40
2023-02-19T07:31:20.816Z,0.40
2023-02-19T07:33:48.577Z,0.40
2023-02-19T07:36:17.870Z,0.40
2023-02-19T07:38:45.519Z,0.50
2023-02-19T07:41:13.193Z,0.43
2023-02-19T07:43:40.731Z,0.40
2023-02-19T07:46:10.635Z,0.53
2023-02-19T07:48:38.908Z,0.53
2023-02-19T07:51:08.303Z,0.40
2023-02-19T07:53:36.259Z,0.50
2023-02-19T07:56:06.333Z,0.40
2023-02-19T07:58:35.596Z,0.35
2023-02-19T08:01:42.494Z,0.40
2023-02-19T08:04:14.347Z,0.30
2023-02-19T08:06:42.211Z,0.40
2023-02-19T08:09:09.971Z,0.40
2023-02-19T08:11:56.323Z,0.50
2023-02-19T08:14:27.687Z,0.43
2023-02-19T08:16:55.566Z,0.40
2023-02-19T08:19:23.301Z,0.30
2023-02-19T08:21:51.944Z,0.70
2023-02-19T08:24:19.170Z,0.40
2023-02-19T08:26:46.366Z,0.40
2023-02-19T08:29:13.489Z,0.40
2023-02-19T08:31:41.070Z,0.50
2023-02-19T08:34:08.434Z,0.60
2023-02-19T08:36:35.672Z,0.80
2023-02-19T08:39:03.448Z,0.50
2023-02-19T08:41:30.665Z,0.40
2023-02-19T08:43:57.961Z,0.43
2023-02-19T08:46:25.298Z,0.40
2023-02-19T08:48:52.635Z,0.40
2023-02-19T08:51:19.887Z,0.30
2023-02-19T08:53:47.343Z,0.40
2023-02-19T08:56:17.975Z,0.50
2023-02-19T08:58:47.402Z,0.50
2023-02-19T09:01:18.862Z,0.40
2023-02-19T09:03:46.619Z,0.50
2023-02-19T09:06:19.704Z,0.50
2023-02-19T09:08:47.208Z,1.33
2023-02-19T09:11:14.869Z,1.33
2023-02-19T09:13:42.793Z,0.70
2023-02-19T09:16:10.684Z,1.07
2023-02-19T09:18:38.495Z,0.83
2023-02-19T09:21:06.482Z,1.00
2023-02-19T09:23:35.802Z,0.80
2023-02-19T09:26:07.282Z,0.80
2023-02-19T09:28:35.093Z,0.60
2023-02-19T09:31:06.648Z,0.60
2023-02-19T09:33:34.283Z,0.97
2023-02-19T09:36:01.960Z,0.60
2023-02-19T09:38:30.507Z,0.67
2023-02-19T09:40:59.303Z,0.50
2023-02-19T09:43:29.558Z,0.50
2023-02-19T09:46:17.992Z,0.70
2023-02-19T09:48:46.401Z,0.40
2023-02-19T09:51:16.167Z,0.40
2023-02-19T09:53:49.375Z,0.50
2023-02-19T09:56:17.868Z,0.70
2023-02-19T09:58:51.320Z,0.50
2023-02-19T10:01:19.254Z,1.17
2023-02-19T10:03:48.219Z,0.87
2023-02-19T10:06:24.825Z,0.50
2023-02-19T10:08:55.705Z,0.50
2023-02-19T10:11:28.360Z,0.60
2023-02-19T10:14:09.625Z,0.93
2023-02-19T10:16:41.560Z,0.45
2023-02-19T10:19:13.972Z,1.85
2023-02-19T10:21:42.235Z,1.03
2023-02-19T10:24:16.975Z,0.50
2023-02-19T10:26:45.298Z,0.50
2023-02-19T10:29:12.942Z,0.40
2023-02-19T10:31:40.322Z,0.75
2023-02-19T10:34:22.436Z,0.40
2023-02-19T10:36:52.689Z,2.13
2023-02-19T10:39:23.122Z,1.02
2023-02-19T10:41:51.758Z,1.07
2023-02-19T10:44:28.470Z,1.43
2023-02-19T10:47:03.511Z,0.85
2023-02-19T10:49:44.379Z,0.90
2023-02-19T10:52:23.698Z,0.60
2023-02-19T10:54:53.755Z,0.60
2023-02-19T10:57:30.605Z,1.10
2023-02-19T11:00:19.261Z,0.80
2023-02-19T11:02:47.182Z,0.60
2023-02-19T11:05:20.562Z,1.87
2023-02-19T11:07:54.117Z,1.08
2023-02-19T11:10:42.558Z,1.17
2023-02-19T11:13:17.366Z,0.90
2023-02-19T11:15:51.149Z,0.80
2023-02-19T11:18:27.572Z,0.60
2023-02-19T11:20:56.046Z,0.65
2023-02-19T11:23:37.882Z,0.60
2023-02-19T11:26:19.075Z,0.50
2023-02-19T11:28:46.535Z,0.50
2023-02-19T11:31:20.327Z,0.88
2023-02-19T11:34:01.024Z,0.77
2023-02-19T11:36:31.117Z,0.77
2023-02-19T11:39:19.492Z,0.60
2023-02-19T11:42:03.543Z,0.85
2023-02-19T11:44:42.547Z,0.70
2023-02-19T11:47:49.018Z,1.08
2023-02-19T11:50:36.650Z,0.85
2023-02-19T11:53:12.780Z,1.38
2023-02-19T11:56:14.577Z,0.50
2023-02-19T11:58:47.976Z,0.93
2023-02-19T12:01:41.379Z,1.02
2023-02-19T12:04:37.750Z,4.07
2023-02-19T12:07:23.347Z,1.85
2023-02-19T12:10:08.882Z,1.58
2023-02-19T12:12:48.934Z,1.15
2023-02-19T12:15:16.107Z,0.65
2023-02-19T12:18:07.472Z,1.17
2023-02-19T12:20:43.549Z,1.30
2023-02-19T12:23:38.845Z,0.70
2023-02-19T12:26:27.904Z,1.25
2023-02-19T12:29:19.901Z,0.60
2023-02-19T12:32:43.234Z,0.98
2023-02-19T12:35:28.854Z,1.08
2023-02-19T12:38:25.426Z,0.77
2023-02-19T12:41:10.638Z,0.95
2023-02-19T12:43:41.995Z,0.60
2023-02-19T12:46:29.842Z,0.50
2023-02-19T12:49:27.437Z,0.40
2023-02-19T12:52:22.154Z,0.50
2023-02-19T12:54:55.958Z,0.60
2023-02-19T12:57:32.246Z,0.70
2023-02-19T13:00:29.187Z,1.50
2023-02-19T13:02:59.014Z,1.25
2023-02-19T13:05:35.350Z,0.57
2023-02-19T13:08:14.334Z,0.50
2023-02-19T13:11:03.395Z,1.27
2023-02-19T13:13:51.556Z,1.10
2023-02-19T13:16:21.241Z,0.57
2023-02-19T13:19:04.832Z,0.80
2023-02-19T13:21:55.252Z,0.75
2023-02-19T13:24:32.870Z,0.57
2023-02-19T13:27:20.273Z,0.65
2023-02-19T13:29:56.316Z,0.40
2023-02-19T13:32:27.608Z,0.55
2023-02-19T13:34:58.047Z,0.65
2023-02-19T13:37:27.007Z,0.50
2023-02-19T13:39:56.969Z,0.50
2023-02-19T13:42:32.952Z,0.50
2023-02-19T13:45:02.537Z,0.75
2023-02-19T13:48:00.906Z,0.90
2023-02-19T13:50:33.736Z,0.70
2023-02-19T13:53:42.765Z,0.70
2023-02-19T13:56:36.426Z,0.60
2023-02-19T13:59:15.532Z,1.48
2023-02-19T14:01:51.908Z,1.08
2023-02-19T14:04:24.071Z,1.10
2023-02-19T14:07:03.736Z,1.17
2023-02-19T14:09:37.527Z,1.00
2023-02-19T14:12:17.939Z,1.25
2023-02-19T14:14:45.238Z,1.13
2023-02-19T14:17:44.092Z,1.60
2023-02-19T14:20:17.935Z,3.60
2023-02-19T14:22:50.583Z,1.55
2023-02-19T14:25:30.017Z,1.10
2023-02-19T14:28:18.775Z,1.30
2023-02-19T14:30:57.292Z,1.25
2023-02-19T14:33:26.680Z,0.68
2023-02-19T14:36:16.131Z,1.13
2023-02-19T14:38:58.663Z,1.73
2023-02-19T14:41:27.538Z,0.90
2023-02-19T14:43:58.584Z,0.90
2023-02-19T14:46:33.317Z,1.77
2023-02-19T14:49:22.542Z,1.00
2023-02-19T14:52:01.226Z,1.65
2023-02-19T14:54:37.428Z,1.85
2023-02-19T14:57:11.091Z,4.28
2023-02-19T14:59:38.845Z,7.72
2023-02-19T15:02:21.289Z,2.03
2023-02-19T15:04:48.564Z,1.30
2023-02-19T15:07:23.988Z,1.48
2023-02-19T15:09:57.206Z,1.73
2023-02-19T15:12:29.264Z,1.73
2023-02-19T15:15:00.498Z,2.00
2023-02-19T15:17:31.296Z,1.50
2023-02-19T15:20:06.682Z,1.50
2023-02-19T15:22:35.883Z,1.70
2023-02-19T15:25:05.459Z,1.10
2023-02-19T15:27:37.741Z,1.77
2023-02-19T15:30:21.566Z,1.27
2023-02-19T15:33:13.120Z,1.65
2023-02-19T15:35:41.833Z,1.25
2023-02-19T15:38:12.806Z,1.00
2023-02-19T15:40:44.482Z,1.77
2023-02-19T15:43:24.520Z,1.25
2023-02-19T15:45:56.804Z,1.95
2023-02-19T15:48:32.105Z,1.17
2023-02-19T15:51:09.618Z,0.65
2023-02-19T15:53:51.269Z,2.40
2023-02-19T15:56:29.712Z,2.58
2023-02-19T15:59:14.001Z,1.13
2023-02-19T16:01:41.624Z,0.90
2023-02-19T16:04:17.842Z,0.70
2023-02-19T16:07:23.499Z,1.02
2023-02-19T16:10:18.181Z,1.38
2023-02-19T16:12:55.784Z,2.25
2023-02-19T16:15:23.225Z,1.90
2023-02-19T16:17:50.731Z,4.40
2023-02-19T16:20:22.662Z,1.67
2023-02-19T16:22:51.033Z,1.38
2023-02-19T16:25:36.200Z,1.42
2023-02-19T16:28:36.650Z,1.60
2023-02-19T16:31:07.129Z,1.95
2023-02-19T16:33:36.640Z,2.33
2023-02-19T16:36:23.434Z,1.52
2023-02-19T16:39:09.501Z,0.85
2023-02-19T16:41:40.001Z,3.75
2023-02-19T16:44:25.896Z,1.40
2023-02-19T16:46:57.850Z,2.53
2023-02-19T16:49:28.446Z,2.28
2023-02-19T16:51:57.151Z,4.53
2023-02-19T16:54:25.650Z,1.98
2023-02-19T16:56:55.018Z,2.40
2023-02-19T16:59:23.119Z,2.25
2023-02-19T17:01:50.928Z,2.17
2023-02-19T17:04:18.374Z,0.70
2023-02-19T17:06:48.051Z,1.92
2023-02-19T17:09:15.735Z,1.23
2023-02-19T17:11:43.700Z,1.98
2023-02-19T17:14:11.038Z,1.85
2023-02-19T17:16:41.128Z,0.90
2023-02-19T17:19:18.357Z,1.55
2023-02-19T17:21:46.831Z,1.33
2023-02-19T17:24:14.541Z,1.30
2023-02-19T17:26:41.738Z,0.65
2023-02-19T17:29:15.276Z,1.88
2023-02-19T17:31:42.701Z,2.03
2023-02-19T17:34:10.311Z,2.00
2023-02-19T17:36:41.062Z,1.00
2023-02-19T17:39:15.564Z,3.53
2023-02-19T17:41:42.876Z,1.42
2023-02-19T17:44:10.528Z,1.10
2023-02-19T17:46:39.341Z,1.35
2023-02-19T17:49:07.689Z,1.73
2023-02-19T17:51:35.860Z,0.90
2023-02-19T17:54:03.066Z,2.05
2023-02-19T17:56:30.269Z,1.20
2023-02-19T17:58:59.451Z,2.45
2023-02-19T18:01:26.787Z,1.95
2023-02-19T18:03:54.158Z,1.52
2023-02-19T18:06:21.426Z,1.10
2023-02-19T18:08:51.460Z,1.38
2023-02-19T18:11:19.792Z,1.25
2023-02-19T18:13:48.260Z,0.65
2023-02-19T18:16:16.323Z,1.55
2023-02-19T18:18:44.815Z,1.58
2023-02-19T18:21:14.295Z,1.67
2023-02-19T18:23:42.799Z,0.52
2023-02-19T18:26:11.698Z,1.70
2023-02-19T18:28:45.659Z,1.05
2023-02-19T18:31:14.452Z,0.93
2023-02-19T18:33:41.857Z,1.65
2023-02-19T18:36:11.921Z,1.58
2023-02-19T18:38:39.574Z,1.50
2023-02-19T18:41:06.853Z,1.40
2023-02-19T18:43:33.948Z,0.90
2023-02-19T18:46:01.474Z,1.75
2023-02-19T18:48:29.106Z,1.63
2023-02-19T18:50:57.885Z,1.33
2023-02-19T18:53:25.595Z,1.20
2023-02-19T18:55:53.847Z,1.80
2023-02-19T18:58:21.076Z,0.80
2023-02-19T19:00:48.234Z,1.13
2023-02-19T19:03:15.487Z,0.65
2023-02-19T19:05:42.623Z,0.55
2023-02-19T19:08:09.998Z,0.88
2023-02-19T19:10:39.913Z,0.43
2023-02-19T19:13:07.204Z,0.60
2023-02-19T19:15:34.644Z,0.85
2023-02-19T19:18:03.069Z,0.50
2023-02-19T19:20:30.558Z,1.25
2023-02-19T19:22:57.778Z,1.02
2023-02-19T19:25:25.597Z,0.47
2023-02-19T19:27:56.046Z,0.40
2023-02-19T19:30:24.016Z,1.48
2023-02-19T19:32:52.776Z,0.50
2023-02-19T19:35:21.213Z,0.60
2023-02-19T19:37:49.793Z,0.60
2023-02-19T19:40:18.662Z,0.47
2023-02-19T19:42:46.693Z,1.02
2023-02-19T19:45:14.561Z,0.82
2023-02-19T19:47:42.061Z,0.40
2023-02-19T19:50:10.255Z,0.50
2023-02-19T19:52:37.513Z,0.63
2023-02-19T19:55:05.482Z,1.02
2023-02-19T19:57:32.612Z,1.40
2023-02-19T19:59:59.858Z,2.15
2023-02-19T20:02:28.568Z,2.45
2023-02-19T20:04:56.272Z,2.40
2023-02-19T20:07:23.565Z,1.52
2023-02-19T20:09:50.769Z,2.97
2023-02-19T20:12:18.335Z,1.40
2023-02-19T20:14:46.880Z,1.05
2023-02-19T20:17:16.473Z,2.47
2023-02-19T20:19:45.416Z,1.58
2023-02-19T20:22:13.164Z,0.63
2023-02-19T20:24:44.591Z,1.13
2023-02-19T20:27:11.881Z,1.67
2023-02-19T20:29:39.212Z,1.08
2023-02-19T20:32:06.699Z,0.95
2023-02-19T20:34:33.907Z,0.80
2023-02-19T20:37:01.288Z,2.05
2023-02-19T20:39:29.483Z,2.85
2023-02-19T20:41:58.578Z,2.85
2023-02-19T20:44:29.968Z,3.05
2023-02-19T20:46:59.076Z,2.38
2023-02-19T20:49:29.902Z,2.00
2023-02-19T20:52:00.172Z,3.22
2023-02-19T20:54:31.702Z,1.60
2023-02-19T20:57:02.377Z,1.33
2023-02-19T20:59:35.053Z,2.20
2023-02-19T21:02:15.834Z,4.00
2023-02-19T21:04:46.865Z,7.90
2023-02-19T21:07:15.211Z,3.25
2023-02-19T21:09:45.159Z,3.28
2023-02-19T21:12:12.825Z,1.20
2023-02-19T21:14:40.822Z,0.90
2023-02-19T21:17:08.580Z,1.55
2023-02-19T21:19:36.353Z,1.90
2023-02-19T21:22:03.670Z,3.10
2023-02-19T21:24:33.093Z,1.70
2023-02-19T21:27:00.763Z,1.50
2023-02-19T21:29:30.262Z,1.42
2023-02-19T21:31:59.576Z,0.95
2023-02-19T21:34:29.689Z,1.17
2023-02-19T21:36:57.369Z,1.65
2023-02-19T21:39:29.700Z,1.83
2023-02-19T21:42:00.556Z,2.08
2023-02-19T21:44:30.171Z,1.40
2023-02-19T21:46:57.282Z,0.63
2023-02-19T21:49:26.358Z,1.05
2023-02-19T21:51:53.562Z,1.23
2023-02-19T21:54:25.190Z,1.27
2023-02-19T21:56:53.636Z,0.85
2023-02-19T21:59:22.811Z,3.22
2023-02-19T22:01:50.863Z,1.27
2023-02-19T22:04:20.830Z,1.27
2023-02-19T22:06:48.450Z,1.83
2023-02-19T22:09:18.944Z,1.67
2023-02-19T22:11:48.702Z,1.08
2023-02-19T22:14:16.305Z,0.77
2023-02-19T22:16:43.848Z,2.08
2023-02-19T22:19:12.990Z,1.15
2023-02-19T22:21:44.306Z,0.80
2023-02-19T22:24:25.196Z,2.03
2023-02-19T22:26:58.780Z,1.73
2023-02-19T22:29:28.603Z,0.68
2023-02-19T22:31:56.483Z,0.98
2023-02-19T22:34:26.499Z,0.85
2023-02-19T22:36:54.364Z,1.48
2023-02-19T22:39:30.920Z,1.67
2023-02-19T22:42:00.968Z,2.80
2023-02-19T22:44:29.093Z,1.30
2023-02-19T22:46:57.136Z,1.70
2023-02-19T22:49:24.723Z,0.60
2023-02-19T22:52:00.493Z,1.00
2023-02-19T22:54:27.962Z,1.17
2023-02-19T22:56:55.861Z,1.05
2023-02-19T22:59:27.941Z,2.58
2023-02-19T23:01:56.437Z,0.60
2023-02-19T23:04:27.510Z,0.68
2023-02-19T23:06:55.068Z,1.42
2023-02-19T23:09:25.441Z,2.08
2023-02-19T23:12:07.837Z,0.65
2023-02-19T23:14:38.935Z,1.58
2023-02-19T23:17:07.065Z,0.75
2023-02-19T23:19:36.814Z,1.88
2023-02-19T23:22:06.702Z,0.60
2023-02-19T23:24:36.400Z,0.63
2023-02-19T23:27:03.976Z,2.20
2023-02-19T23:29:31.487Z,1.40
2023-02-19T23:32:02.258Z,1.98
2023-02-19T23:34:29.450Z,2.63
2023-02-19T23:37:02.672Z,0.70
2023-02-19T23:39:32.922Z,2.47
2023-02-19T23:42:00.456Z,1.58
2023-02-19T23:44:28.367Z,1.77
2023-02-19T23:46:55.770Z,1.25
2023-02-19T23:49:23.801Z,1.45
2023-02-19T23:51:51.854Z,1.02
2023-02-19T23:54:19.531Z,1.30
2023-02-19T23:56:50.206Z,3.25
2023-02-19T23:59:18.950Z,1.13
